createdAt,value
2018-04-24T00:00:48.047Z,10.72
2018-04-24T00:01:48.063Z,10.72
2018-04-24T00:02:48.080Z,10.87
2018-04-24T00:03:48.096Z,10.75
2018-04-24T00:04:48.123Z,10.56
2018-04-24T00:05:48.129Z,10.61
2018-04-24T00:06:48.151Z,10.67
2018-04-24T00:07:48.165Z,10.67
2018-04-24T00:08:48.183Z,10.76
2018-04-24T00:09:48.230Z,10.79
2018-04-24T00:10:48.217Z,10.79
2018-04-24T00:11:48.236Z,10.67
2018-04-24T00:12:48.254Z,10.63
2018-04-24T00:13:48.271Z,10.86
2018-04-24T00:14:48.289Z,10.92
2018-04-24T00:15:48.309Z,10.75
2018-04-24T00:16:48.328Z,10.87
2018-04-24T00:17:48.340Z,11.07
2018-04-24T00:18:48.362Z,11.19
2018-04-24T00:19:48.383Z,11.19
2018-04-24T00:20:48.399Z,11.14
2018-04-24T00:21:48.415Z,11.22
2018-04-24T00:22:48.442Z,11.41
2018-04-24T00:23:48.449Z,11.41
2018-04-24T00:24:48.469Z,11.37
2018-04-24T00:25:48.485Z,11.40
2018-04-24T00:26:48.498Z,11.15
2018-04-24T00:27:48.522Z,11.11
2018-04-24T00:28:48.544Z,11.18
2018-04-24T00:29:48.560Z,11.10
2018-04-24T00:30:48.576Z,11.12
2018-04-24T00:31:48.589Z,11.22
2018-04-24T00:32:48.613Z,11.14
2018-04-24T00:33:48.624Z,10.89
2018-04-24T00:34:48.648Z,10.82
2018-04-24T00:35:48.672Z,10.72
2018-04-24T00:36:48.678Z,10.72
2018-04-24T00:37:48.694Z,10.68
2018-04-24T00:38:48.723Z,10.63
2018-04-24T00:39:48.749Z,10.64
2018-04-24T00:40:48.747Z,10.94
2018-04-24T00:41:48.773Z,11.00
2018-04-24T00:42:48.788Z,10.96
2018-04-24T00:43:48.799Z,11.04
2018-04-24T00:44:48.821Z,11.15
2018-04-24T00:45:48.883Z,11.14
2018-04-24T00:46:48.863Z,11.17
2018-04-24T00:47:48.870Z,11.18
2018-04-24T00:48:48.891Z,11.17
2018-04-24T00:49:48.908Z,11.19
2018-04-24T00:50:48.936Z,11.27
2018-04-24T00:51:48.943Z,11.27
2018-04-24T00:52:48.961Z,11.26
2018-04-24T00:53:48.982Z,11.30
2018-04-24T00:54:49.008Z,11.37
2018-04-24T00:55:49.017Z,11.35
2018-04-24T00:56:49.034Z,11.36
2018-04-24T00:57:49.050Z,11.33
2018-04-24T00:58:49.070Z,11.35
2018-04-24T00:59:49.095Z,11.33
2018-04-24T01:00:49.106Z,11.27
2018-04-24T01:01:49.128Z,11.22
2018-04-24T01:02:49.137Z,10.90
2018-04-24T01:03:49.154Z,10.82
2018-04-24T01:04:49.170Z,10.60
2018-04-24T01:05:49.211Z,10.59
2018-04-24T01:06:49.245Z,10.61
2018-04-24T01:07:49.266Z,10.54
2018-04-24T01:08:49.242Z,10.68
2018-04-24T01:09:49.258Z,10.75
2018-04-24T01:10:49.274Z,10.79
2018-04-24T01:11:49.302Z,10.64
2018-04-24T01:12:49.314Z,10.60
2018-04-24T01:13:49.351Z,10.78
2018-04-24T01:14:49.348Z,10.79
2018-04-24T01:15:49.368Z,10.90
2018-04-24T01:16:49.384Z,10.92
2018-04-24T01:17:49.409Z,10.99
2018-04-24T01:18:49.426Z,11.07
2018-04-24T01:19:49.435Z,11.05
2018-04-24T01:20:49.463Z,11.02
2018-04-24T01:21:49.476Z,11.05
2018-04-24T01:22:49.497Z,11.05
2018-04-24T01:23:49.533Z,11.11
2018-04-24T01:24:49.529Z,11.17
2018-04-24T01:25:49.542Z,11.08
2018-04-24T01:26:49.558Z,10.97
2018-04-24T01:27:49.577Z,10.92
2018-04-24T01:28:49.596Z,10.94
2018-04-24T01:29:49.628Z,11.07
2018-04-24T01:30:49.638Z,10.89
2018-04-24T01:31:49.668Z,10.92
2018-04-24T01:32:49.666Z,11.00
2018-04-24T01:33:49.683Z,11.05
2018-04-24T01:34:49.701Z,10.99
2018-04-24T01:35:49.725Z,10.90
2018-04-24T01:36:49.744Z,10.61
2018-04-24T01:37:49.756Z,10.46
2018-04-24T01:38:49.778Z,10.37
2018-04-24T01:39:49.787Z,10.22
2018-04-24T01:40:49.828Z,10.16
2018-04-24T01:41:49.824Z,10.23
2018-04-24T01:42:49.842Z,10.30
2018-04-24T01:43:49.859Z,10.34
2018-04-24T01:44:49.880Z,10.56
2018-04-24T01:45:49.897Z,10.51
2018-04-24T01:46:49.916Z,10.37
2018-04-24T01:47:49.939Z,10.40
2018-04-24T01:48:49.948Z,10.44
2018-04-24T01:49:49.988Z,10.53
2018-04-24T01:50:49.993Z,10.61
2018-04-24T01:51:50.007Z,10.56
2018-04-24T01:52:50.020Z,10.48
2018-04-24T01:53:50.036Z,10.40
2018-04-24T01:54:50.081Z,10.38
2018-04-24T01:55:50.103Z,10.35
2018-04-24T01:56:50.090Z,10.37
2018-04-24T01:57:50.104Z,10.34
2018-04-24T01:58:50.119Z,10.44
2018-04-24T01:59:50.136Z,10.42
2018-04-24T02:00:50.158Z,10.44
2018-04-24T02:01:50.173Z,10.30
2018-04-24T02:02:50.190Z,10.17
2018-04-24T02:03:50.211Z,10.23
2018-04-24T02:04:50.222Z,10.20
2018-04-24T02:05:50.241Z,10.31
2018-04-24T02:06:50.261Z,10.34
2018-04-24T02:07:50.289Z,10.48
2018-04-24T02:08:50.291Z,10.37
2018-04-24T02:09:50.307Z,10.33
2018-04-24T02:10:50.334Z,10.23
2018-04-24T02:11:50.344Z,10.16
2018-04-24T02:12:50.386Z,10.20
2018-04-24T02:13:50.382Z,10.16
2018-04-24T02:14:50.406Z,9.99
2018-04-24T02:15:50.417Z,10.13
2018-04-24T02:16:50.456Z,10.13
2018-04-24T02:17:50.448Z,10.25
2018-04-24T02:18:50.474Z,10.20
2018-04-24T02:19:50.479Z,9.89
2018-04-24T02:20:50.500Z,9.59
2018-04-24T02:21:50.536Z,9.86
2018-04-24T02:22:50.554Z,9.91
2018-04-24T02:23:50.554Z,9.97
2018-04-24T02:24:50.573Z,10.02
2018-04-24T02:25:50.583Z,10.05
2018-04-24T02:26:50.605Z,10.04
2018-04-24T02:27:50.621Z,10.12
2018-04-24T02:28:50.637Z,10.15
2018-04-24T02:29:50.655Z,9.95
2018-04-24T02:30:50.673Z,9.98
2018-04-24T02:31:50.702Z,9.86
2018-04-24T02:32:50.724Z,9.77
2018-04-24T02:33:50.724Z,9.72
2018-04-24T02:34:50.741Z,9.55
2018-04-24T02:35:50.759Z,9.40
2018-04-24T02:36:50.836Z,9.39
2018-04-24T02:37:50.813Z,9.64
2018-04-24T02:38:50.815Z,9.61
2018-04-24T02:39:50.838Z,9.54
2018-04-24T02:40:50.854Z,9.56
2018-04-24T02:41:50.865Z,9.39
2018-04-24T02:42:50.880Z,9.37
2018-04-24T02:43:50.894Z,9.22
2018-04-24T02:44:50.920Z,9.47
2018-04-24T02:45:50.933Z,9.55
2018-04-24T02:46:50.946Z,9.64
2018-04-24T02:47:50.965Z,9.72
2018-04-24T02:48:50.991Z,9.68
2018-04-24T02:49:51.002Z,9.66
2018-04-24T02:50:51.018Z,9.58
2018-04-24T02:51:51.039Z,9.51
2018-04-24T02:52:51.052Z,9.64
2018-04-24T02:53:51.070Z,9.65
2018-04-24T02:54:51.091Z,9.39
2018-04-24T02:55:51.102Z,9.39
2018-04-24T02:56:51.121Z,9.48
2018-04-24T02:57:51.137Z,9.56
2018-04-24T02:58:51.156Z,9.36
2018-04-24T02:59:51.194Z,9.31
2018-04-24T03:00:51.187Z,9.47
2018-04-24T03:01:51.208Z,9.64
2018-04-24T03:02:51.223Z,9.79
2018-04-24T03:03:51.243Z,9.86
2018-04-24T03:04:51.279Z,9.91
2018-04-24T03:05:51.270Z,9.86
2018-04-24T03:06:51.323Z,9.87
2018-04-24T03:07:51.313Z,9.98
2018-04-24T03:08:51.325Z,9.83
2018-04-24T03:09:51.348Z,9.98
2018-04-24T03:10:51.360Z,9.98
2018-04-24T03:11:51.436Z,9.87
2018-04-24T03:12:51.395Z,9.99
2018-04-24T03:13:51.406Z,10.16
2018-04-24T03:14:51.429Z,10.20
2018-04-24T03:15:51.451Z,10.30
2018-04-24T03:16:51.461Z,10.30
2018-04-24T03:17:51.476Z,10.28
2018-04-24T03:18:51.511Z,10.07
2018-04-24T03:19:51.510Z,10.10
2018-04-24T03:20:51.534Z,10.16
2018-04-24T03:21:51.557Z,10.25
2018-04-24T03:22:51.564Z,10.19
2018-04-24T03:23:51.581Z,10.12
2018-04-24T03:24:51.599Z,10.15
2018-04-24T03:25:51.622Z,10.30
2018-04-24T03:26:51.637Z,10.35
2018-04-24T03:27:51.650Z,10.33
2018-04-24T03:28:51.722Z,10.26
2018-04-24T03:29:51.684Z,10.33
2018-04-24T03:30:51.701Z,10.30
2018-04-24T03:31:51.716Z,10.40
2018-04-24T03:32:51.740Z,10.44
2018-04-24T03:33:51.754Z,10.28
2018-04-24T03:34:51.788Z,10.44
2018-04-24T03:35:51.790Z,10.30
2018-04-24T03:36:51.807Z,10.31
2018-04-24T03:37:51.829Z,10.34
2018-04-24T03:38:51.841Z,10.40
2018-04-24T03:39:51.860Z,10.56
2018-04-24T03:40:51.885Z,10.59
2018-04-24T03:41:51.911Z,10.61
2018-04-24T03:42:51.915Z,10.67
2018-04-24T03:43:52.055Z,10.53
2018-04-24T03:44:51.950Z,10.60
2018-04-24T03:45:51.964Z,10.69
2018-04-24T03:46:51.978Z,10.71
2018-04-24T03:47:51.999Z,10.81
2018-04-24T03:48:52.020Z,10.75
2018-04-24T03:49:52.039Z,10.79
2018-04-24T03:50:52.082Z,10.72
2018-04-24T03:51:52.087Z,10.82
2018-04-24T03:52:52.095Z,10.92
2018-04-24T03:53:52.115Z,10.89
2018-04-24T03:54:52.124Z,10.96
2018-04-24T03:55:52.137Z,11.07
2018-04-24T03:56:52.160Z,10.97
2018-04-24T03:57:52.168Z,11.04
2018-04-24T03:58:52.206Z,11.00
2018-04-24T03:59:52.217Z,10.94
2018-04-24T04:00:52.225Z,10.84
2018-04-24T04:01:52.242Z,10.57
2018-04-24T04:02:52.347Z,10.67
2018-04-24T04:03:52.294Z,10.68
2018-04-24T04:04:52.300Z,10.89
2018-04-24T04:05:52.328Z,11.05
2018-04-24T04:06:52.329Z,11.17
2018-04-24T04:07:52.461Z,10.93
2018-04-24T04:08:52.362Z,10.93
2018-04-24T04:09:52.386Z,10.86
2018-04-24T04:10:52.406Z,11.04
2018-04-24T04:11:52.431Z,11.23
2018-04-24T04:12:52.462Z,11.15
2018-04-24T04:13:52.451Z,11.22
2018-04-24T04:14:52.472Z,11.27
2018-04-24T04:15:52.501Z,11.40
2018-04-24T04:16:52.506Z,11.37
2018-04-24T04:17:52.550Z,11.44
2018-04-24T04:18:52.638Z,11.48
2018-04-24T04:19:52.564Z,11.51
2018-04-24T04:20:52.601Z,11.48
2018-04-24T04:21:52.594Z,11.50
2018-04-24T04:22:52.620Z,11.50
2018-04-24T04:23:52.633Z,11.50
2018-04-24T04:24:52.670Z,11.51
2018-04-24T04:25:52.664Z,11.54
2018-04-24T04:26:52.955Z,11.47
2018-04-24T04:27:52.877Z,11.44
2018-04-24T04:28:52.712Z,11.52
2018-04-24T04:29:52.727Z,11.73
2018-04-24T04:30:52.765Z,11.69
2018-04-24T04:31:52.771Z,11.70
2018-04-24T04:32:52.831Z,11.81
2018-04-24T04:33:52.835Z,11.86
2018-04-24T04:34:52.908Z,11.50
2018-04-24T04:35:52.882Z,11.47
2018-04-24T04:36:52.865Z,11.48
2018-04-24T04:37:52.892Z,11.45
2018-04-24T04:38:52.905Z,11.63
2018-04-24T04:39:52.906Z,11.73
2018-04-24T04:40:52.935Z,11.73
2018-04-24T04:41:52.942Z,11.66
2018-04-24T04:42:52.958Z,11.65
2018-04-24T04:43:52.979Z,11.70
2018-04-24T04:44:53.003Z,11.66
2018-04-24T04:45:53.149Z,11.86
2018-04-24T04:46:53.041Z,11.99
2018-04-24T04:47:53.061Z,11.91
2018-04-24T04:48:53.076Z,12.04
2018-04-24T04:49:53.083Z,12.15
2018-04-24T04:50:53.135Z,12.10
2018-04-24T04:51:53.122Z,12.13
2018-04-24T04:52:53.200Z,12.28
2018-04-24T04:53:53.249Z,12.42
2018-04-24T04:54:53.211Z,12.50
2018-04-24T04:55:53.194Z,12.91
2018-04-24T04:56:53.221Z,13.20
2018-04-24T04:57:53.321Z,13.19
2018-04-24T04:58:53.259Z,13.96
2018-04-24T04:59:53.312Z,14.55
2018-04-24T05:00:53.292Z,14.81
2018-04-24T05:01:53.313Z,15.22
2018-04-24T05:02:53.319Z,15.61
2018-04-24T05:03:53.351Z,15.80
2018-04-24T05:04:53.361Z,16.33
2018-04-24T05:05:53.461Z,16.74
2018-04-24T05:06:53.437Z,16.87
2018-04-24T05:07:53.419Z,16.12
2018-04-24T05:08:53.443Z,15.03
2018-04-24T05:09:53.465Z,15.27
2018-04-24T05:10:53.491Z,15.58
2018-04-24T05:11:53.564Z,15.79
2018-04-24T05:12:53.531Z,16.16
2018-04-24T05:13:53.545Z,16.42
2018-04-24T05:14:53.587Z,15.76
2018-04-24T05:15:53.589Z,16.01
2018-04-24T05:16:53.612Z,16.20
2018-04-24T05:17:53.822Z,16.10
2018-04-24T05:18:53.724Z,16.29
2018-04-24T05:19:53.759Z,16.49
2018-04-24T05:20:53.790Z,16.89
2018-04-24T05:21:53.767Z,17.44
2018-04-24T05:22:53.745Z,18.03
2018-04-24T05:23:53.750Z,18.68
2018-04-24T05:24:53.773Z,19.24
2018-04-24T05:25:53.797Z,19.22
2018-04-24T05:26:53.822Z,19.69
2018-04-24T05:27:53.849Z,19.58
2018-04-24T05:28:53.874Z,19.56
2018-04-24T05:29:53.939Z,19.07
2018-04-24T05:30:53.904Z,19.12
2018-04-24T05:31:53.957Z,19.21
2018-04-24T05:32:53.947Z,18.75
2018-04-24T05:33:53.972Z,18.77
2018-04-24T05:34:53.994Z,18.65
2018-04-24T05:35:54.016Z,18.55
2018-04-24T05:36:54.163Z,18.71
2018-04-24T05:37:54.062Z,18.66
2018-04-24T05:38:54.082Z,17.97
2018-04-24T05:39:54.109Z,17.51
2018-04-24T05:40:54.148Z,17.45
2018-04-24T05:41:54.146Z,17.20
2018-04-24T05:42:54.174Z,17.23
2018-04-24T05:43:54.260Z,17.56
2018-04-24T05:44:54.280Z,17.90
2018-04-24T05:45:54.237Z,17.59
2018-04-24T05:46:54.350Z,17.26
2018-04-24T05:47:54.285Z,17.67
2018-04-24T05:48:54.304Z,18.04
2018-04-24T05:49:54.323Z,18.26
2018-04-24T05:50:54.397Z,18.63
2018-04-24T05:51:54.373Z,18.83
2018-04-24T05:52:54.456Z,18.52
2018-04-24T05:53:54.422Z,18.96
2018-04-24T05:54:54.473Z,18.63
2018-04-24T05:55:54.464Z,18.26
2018-04-24T05:56:54.475Z,18.01
2018-04-24T05:57:54.524Z,18.05
2018-04-24T05:58:54.602Z,17.63
2018-04-24T05:59:54.715Z,17.27
2018-04-24T06:00:54.569Z,16.72
2018-04-24T06:01:54.662Z,16.41
2018-04-24T06:02:54.604Z,16.72
2018-04-24T06:03:54.700Z,16.51
2018-04-24T06:04:54.642Z,16.10
2018-04-24T06:05:54.688Z,16.35
2018-04-24T06:06:54.697Z,16.39
2018-04-24T06:07:54.739Z,16.50
2018-04-24T06:08:54.746Z,16.64
2018-04-24T06:09:54.749Z,17.56
2018-04-24T06:10:54.773Z,18.34
2018-04-24T06:11:54.891Z,18.47
2018-04-24T06:12:54.826Z,18.92
2018-04-24T06:13:54.889Z,19.27
2018-04-24T06:14:54.908Z,19.48
2018-04-24T06:15:55.046Z,19.11
2018-04-24T06:16:54.970Z,19.71
2018-04-24T06:17:54.931Z,20.43
2018-04-24T06:18:54.952Z,20.75
2018-04-24T06:19:55.127Z,20.51
2018-04-24T06:20:55.087Z,20.84
2018-04-24T06:21:55.091Z,21.02
2018-04-24T06:22:55.042Z,21.45
2018-04-24T06:23:55.073Z,20.85
2018-04-24T06:24:55.216Z,21.73
2018-04-24T06:25:55.111Z,22.08
2018-04-24T06:26:55.236Z,21.73
2018-04-24T06:27:55.163Z,22.17
2018-04-24T06:28:55.189Z,22.32
2018-04-24T06:29:55.262Z,22.35
2018-04-24T06:30:55.232Z,22.88
2018-04-24T06:31:55.263Z,22.76
2018-04-24T06:32:55.395Z,22.44
2018-04-24T06:33:55.306Z,21.45
2018-04-24T06:34:55.331Z,21.51
2018-04-24T06:35:55.417Z,21.05
2018-04-24T06:36:55.415Z,21.09
2018-04-24T06:37:55.408Z,21.12
2018-04-24T06:38:55.434Z,20.36
2018-04-24T06:39:55.456Z,20.13
2018-04-24T06:40:55.488Z,20.11
2018-04-24T06:41:55.556Z,20.11
2018-04-24T06:42:55.568Z,19.56
2018-04-24T06:43:55.557Z,18.86
2018-04-24T06:44:55.599Z,18.98
2018-04-24T06:45:55.656Z,18.89
2018-04-24T06:46:55.693Z,18.20
2018-04-24T06:47:55.699Z,18.11
2018-04-24T06:48:55.668Z,17.72
2018-04-24T06:49:55.696Z,16.94
2018-04-24T06:50:55.715Z,17.31
2018-04-24T06:51:55.839Z,17.08
2018-04-24T06:52:55.765Z,17.22
2018-04-24T06:53:55.790Z,17.36
2018-04-24T06:54:55.813Z,17.26
2018-04-24T06:55:55.832Z,17.46
2018-04-24T06:56:55.852Z,17.36
2018-04-24T06:57:55.877Z,17.16
2018-04-24T06:58:55.902Z,16.69
2018-04-24T06:59:55.924Z,16.64
2018-04-24T07:00:56.039Z,16.97
2018-04-24T07:01:55.982Z,16.65
2018-04-24T07:02:56.082Z,16.66
2018-04-24T07:03:56.169Z,16.66
2018-04-24T07:04:56.030Z,16.97
2018-04-24T07:05:56.058Z,16.86
2018-04-24T07:06:56.192Z,16.94
2018-04-24T07:07:56.092Z,16.99
2018-04-24T07:08:56.138Z,17.29
2018-04-24T07:09:56.126Z,17.15
2018-04-24T07:10:56.178Z,17.30
2018-04-24T07:11:56.172Z,17.63
2018-04-24T07:12:56.202Z,17.14
2018-04-24T07:13:56.220Z,16.53
2018-04-24T07:14:56.250Z,16.61
2018-04-24T07:15:56.253Z,16.57
2018-04-24T07:16:56.360Z,16.31
2018-04-24T07:17:56.301Z,16.09
2018-04-24T07:18:56.327Z,16.39
2018-04-24T07:19:56.347Z,16.57
2018-04-24T07:20:56.498Z,16.86
2018-04-24T07:21:56.458Z,16.69
2018-04-24T07:22:56.531Z,16.68
2018-04-24T07:23:56.433Z,17.24
2018-04-24T07:24:56.493Z,17.27
2018-04-24T07:25:56.541Z,17.27
2018-04-24T07:26:56.488Z,17.54
2018-04-24T07:27:56.503Z,17.78
2018-04-24T07:28:56.529Z,17.78
2018-04-24T07:29:56.549Z,17.57
2018-04-24T07:30:56.629Z,17.39
2018-04-24T07:31:56.588Z,17.38
2018-04-24T07:32:56.700Z,17.12
2018-04-24T07:33:56.658Z,16.96
2018-04-24T07:34:56.649Z,16.96
2018-04-24T07:35:56.673Z,16.89
2018-04-24T07:36:56.687Z,16.86
2018-04-24T07:37:56.715Z,16.64
2018-04-24T07:38:56.742Z,16.71
2018-04-24T07:39:56.758Z,16.87
2018-04-24T07:40:56.882Z,17.15
2018-04-24T07:41:56.795Z,16.76
2018-04-24T07:42:56.812Z,16.81
2018-04-24T07:43:56.837Z,16.64
2018-04-24T07:44:56.885Z,16.74
2018-04-24T07:45:56.873Z,17.33
2018-04-24T07:46:57.060Z,17.23
2018-04-24T07:47:56.916Z,17.26
2018-04-24T07:48:56.943Z,17.46
2018-04-24T07:49:57.007Z,17.90
2018-04-24T07:50:57.005Z,17.48
2018-04-24T07:51:56.997Z,17.67
2018-04-24T07:52:57.020Z,17.57
2018-04-24T07:53:57.042Z,17.38
2018-04-24T07:54:57.075Z,17.16
2018-04-24T07:55:57.112Z,17.15
2018-04-24T07:56:57.113Z,17.15
2018-04-24T07:57:57.137Z,16.76
2018-04-24T07:58:57.163Z,17.01
2018-04-24T07:59:57.240Z,17.15
2018-04-24T08:00:57.208Z,16.96
2018-04-24T08:01:57.324Z,17.09
2018-04-24T08:02:57.232Z,16.72
2018-04-24T08:03:57.246Z,16.86
2018-04-24T08:04:57.270Z,16.89
2018-04-24T08:05:57.292Z,17.16
2018-04-24T08:06:57.322Z,16.97
2018-04-24T08:07:57.392Z,17.12
2018-04-24T08:08:57.464Z,17.27
2018-04-24T08:09:57.434Z,17.11
2018-04-24T08:10:57.403Z,16.96
2018-04-24T08:11:57.437Z,16.64
2018-04-24T08:12:57.559Z,17.02
2018-04-24T08:13:57.457Z,17.41
2018-04-24T08:14:57.483Z,17.41
2018-04-24T08:15:57.501Z,17.33
2018-04-24T08:16:57.517Z,16.72
2018-04-24T08:17:57.544Z,16.91
2018-04-24T08:18:57.564Z,16.65
2018-04-24T08:19:57.578Z,16.97
2018-04-24T08:20:57.670Z,16.99
2018-04-24T08:21:57.653Z,17.39
2018-04-24T08:22:57.775Z,17.23
2018-04-24T08:23:57.662Z,17.24
2018-04-24T08:24:57.900Z,17.19
2018-04-24T08:25:57.783Z,17.09
2018-04-24T08:26:57.747Z,17.27
2018-04-24T08:27:57.748Z,16.86
2018-04-24T08:28:57.766Z,17.14
2018-04-24T08:29:57.789Z,16.84
2018-04-24T08:30:57.812Z,16.90
2018-04-24T08:31:57.836Z,17.02
2018-04-24T08:32:57.863Z,16.96
2018-04-24T08:33:57.872Z,17.29
2018-04-24T08:34:57.953Z,17.72
2018-04-24T08:35:57.915Z,17.41
2018-04-24T08:36:57.938Z,17.41
2018-04-24T08:37:57.951Z,17.67
2018-04-24T08:38:58.052Z,17.65
2018-04-24T08:39:58.035Z,17.74
2018-04-24T08:40:58.045Z,17.78
2018-04-24T08:41:58.035Z,17.09
2018-04-24T08:42:58.096Z,17.23
2018-04-24T08:43:58.130Z,17.39
2018-04-24T08:44:58.099Z,17.64
2018-04-24T08:45:58.120Z,17.45
2018-04-24T08:46:58.141Z,17.57
2018-04-24T08:47:58.212Z,17.67
2018-04-24T08:48:58.258Z,17.80
2018-04-24T08:49:58.210Z,17.98
2018-04-24T08:50:58.225Z,17.97
2018-04-24T08:51:58.242Z,17.90
2018-04-24T08:52:58.259Z,17.92
2018-04-24T08:53:58.291Z,17.51
2018-04-24T08:54:58.386Z,17.34
2018-04-24T08:55:58.327Z,17.41
2018-04-24T08:56:58.408Z,17.08
2018-04-24T08:57:58.447Z,17.14
2018-04-24T08:58:58.387Z,17.04
2018-04-24T08:59:58.412Z,16.94
2018-04-24T09:00:58.427Z,16.81
2018-04-24T09:01:58.477Z,16.89
2018-04-24T09:02:58.485Z,16.90
2018-04-24T09:03:58.490Z,16.99
2018-04-24T09:04:58.552Z,16.64
2018-04-24T09:05:58.532Z,16.84
2018-04-24T09:06:58.551Z,16.68
2018-04-24T09:07:58.579Z,16.86
2018-04-24T09:08:58.604Z,16.99
2018-04-24T09:09:58.620Z,16.71
2018-04-24T09:10:58.629Z,16.71
2018-04-24T09:11:58.657Z,16.83
2018-04-24T09:12:58.708Z,17.01
2018-04-24T09:13:58.860Z,16.99
2018-04-24T09:14:58.721Z,16.75
2018-04-24T09:15:58.728Z,16.76
2018-04-24T09:16:58.772Z,16.90
2018-04-24T09:17:58.775Z,17.02
2018-04-24T09:18:58.791Z,16.97
2018-04-24T09:19:58.825Z,16.83
2018-04-24T09:20:58.836Z,16.72
2018-04-24T09:21:58.923Z,16.49
2018-04-24T09:22:58.881Z,16.51
2018-04-24T09:23:58.897Z,16.46
2018-04-24T09:24:59.012Z,16.58
2018-04-24T09:25:58.929Z,16.72
2018-04-24T09:26:59.023Z,16.66
2018-04-24T09:27:58.971Z,16.76
2018-04-24T09:28:59.097Z,16.58
2018-04-24T09:29:59.097Z,16.26
2018-04-24T09:30:59.031Z,16.15
2018-04-24T09:31:59.171Z,16.24
2018-04-24T09:32:59.073Z,16.24
2018-04-24T09:33:59.090Z,15.92
2018-04-24T09:34:59.111Z,15.82
2018-04-24T09:35:59.139Z,15.82
2018-04-24T09:36:59.259Z,16.04
2018-04-24T09:37:59.187Z,16.13
2018-04-24T09:38:59.271Z,16.26
2018-04-24T09:39:59.233Z,16.05
2018-04-24T09:40:59.232Z,15.73
2018-04-24T09:41:59.295Z,15.59
2018-04-24T09:42:59.280Z,15.44
2018-04-24T09:43:59.370Z,15.67
2018-04-24T09:44:59.325Z,15.54
2018-04-24T09:45:59.437Z,15.19
2018-04-24T09:46:59.361Z,15.33
2018-04-24T09:47:59.532Z,15.57
2018-04-24T09:48:59.480Z,15.82
2018-04-24T09:49:59.409Z,15.95
2018-04-24T09:50:59.453Z,16.13
2018-04-24T09:51:59.454Z,16.16
2018-04-24T09:52:59.534Z,15.94
2018-04-24T09:53:59.492Z,16.28
2018-04-24T09:54:59.578Z,16.05
2018-04-24T09:55:59.531Z,16.15
2018-04-24T09:56:59.675Z,16.38
2018-04-24T09:57:59.638Z,16.60
2018-04-24T09:58:59.688Z,16.56
2018-04-24T09:59:59.621Z,16.43
2018-04-24T10:00:59.630Z,16.38
2018-04-24T10:01:59.679Z,16.46
2018-04-24T10:02:59.668Z,16.78
2018-04-24T10:03:59.686Z,16.75
2018-04-24T10:04:59.786Z,16.72
2018-04-24T10:05:59.874Z,16.78
2018-04-24T10:06:59.750Z,16.50
2018-04-24T10:07:59.777Z,16.39
2018-04-24T10:08:59.791Z,16.15
2018-04-24T10:09:59.809Z,16.36
2018-04-24T10:10:59.833Z,16.60
2018-04-24T10:11:59.847Z,16.42
2018-04-24T10:12:59.927Z,16.39
2018-04-24T10:14:00.108Z,16.53
2018-04-24T10:14:59.913Z,16.35
2018-04-24T10:15:59.931Z,16.09
2018-04-24T10:16:59.959Z,15.94
2018-04-24T10:17:59.965Z,16.10
2018-04-24T10:19:00.012Z,16.15
2018-04-24T10:20:00.011Z,16.57
2018-04-24T10:21:00.037Z,16.36
2018-04-24T10:22:00.051Z,16.43
2018-04-24T10:23:00.120Z,16.66
2018-04-24T10:24:00.090Z,16.47
2018-04-24T10:25:00.113Z,16.65
2018-04-24T10:26:00.322Z,16.65
2018-04-24T10:27:00.156Z,16.61
2018-04-24T10:28:00.194Z,16.74
2018-04-24T10:29:00.277Z,16.61
2018-04-24T10:30:00.223Z,16.64
2018-04-24T10:31:00.232Z,16.49
2018-04-24T10:32:00.267Z,16.33
2018-04-24T10:33:00.267Z,16.36
2018-04-24T10:34:00.295Z,16.29
2018-04-24T10:35:00.315Z,16.23
2018-04-24T10:36:00.334Z,16.26
2018-04-24T10:37:00.351Z,16.36
2018-04-24T10:38:00.365Z,16.53
2018-04-24T10:39:00.390Z,16.56
2018-04-24T10:40:00.494Z,16.64
2018-04-24T10:41:00.425Z,16.69
2018-04-24T10:42:00.445Z,16.65
2018-04-24T10:43:00.469Z,16.64
2018-04-24T10:44:00.489Z,16.15
2018-04-24T10:45:00.554Z,16.01
2018-04-24T10:46:00.650Z,16.35
2018-04-24T10:47:00.554Z,16.50
2018-04-24T10:48:00.615Z,16.78
2018-04-24T10:49:00.587Z,16.86
2018-04-24T10:50:00.615Z,17.16
2018-04-24T10:51:00.634Z,17.14
2018-04-24T10:52:00.652Z,17.24
2018-04-24T10:53:00.672Z,17.04
2018-04-24T10:54:00.695Z,16.97
2018-04-24T10:55:00.775Z,17.33
2018-04-24T10:56:00.833Z,17.56
2018-04-24T10:57:00.753Z,17.63
2018-04-24T10:58:00.771Z,17.65
2018-04-24T10:59:00.798Z,17.57
2018-04-24T11:00:00.815Z,17.51
2018-04-24T11:01:00.843Z,17.42
2018-04-24T11:02:01.020Z,17.63
2018-04-24T11:03:00.903Z,17.27
2018-04-24T11:04:00.894Z,17.54
2018-04-24T11:05:00.919Z,17.60
2018-04-24T11:06:00.949Z,17.85
2018-04-24T11:07:01.044Z,17.44
2018-04-24T11:08:01.018Z,17.36
2018-04-24T11:09:01.107Z,17.46
2018-04-24T11:10:01.014Z,17.85
2018-04-24T11:11:01.140Z,18.00
2018-04-24T11:12:01.055Z,17.78
2018-04-24T11:13:01.179Z,17.94
2018-04-24T11:14:01.103Z,18.04
2018-04-24T11:15:01.211Z,18.00
2018-04-24T11:16:01.134Z,17.79
2018-04-24T11:17:01.230Z,17.68
2018-04-24T11:18:01.175Z,17.46
2018-04-24T11:19:01.214Z,17.38
2018-04-24T11:20:01.374Z,17.41
2018-04-24T11:21:01.237Z,17.68
2018-04-24T11:22:01.276Z,17.82
2018-04-24T11:23:01.388Z,17.80
2018-04-24T11:24:01.425Z,17.82
2018-04-24T11:25:01.343Z,17.71
2018-04-24T11:26:01.358Z,17.59
2018-04-24T11:27:01.370Z,17.74
2018-04-24T11:28:01.436Z,17.67
2018-04-24T11:29:01.462Z,17.72
2018-04-24T11:30:01.430Z,17.65
2018-04-24T11:31:01.443Z,17.79
2018-04-24T11:32:01.489Z,17.48
2018-04-24T11:33:01.511Z,17.26
2018-04-24T11:34:01.601Z,17.41
2018-04-24T11:35:01.524Z,17.52
2018-04-24T11:36:01.568Z,17.78
2018-04-24T11:37:01.574Z,17.86
2018-04-24T11:38:01.600Z,17.86
2018-04-24T11:39:01.606Z,17.87
2018-04-24T11:40:01.640Z,18.04
2018-04-24T11:41:01.714Z,17.89
2018-04-24T11:42:01.669Z,17.86
2018-04-24T11:43:01.687Z,17.68
2018-04-24T11:44:01.727Z,17.80
2018-04-24T11:45:01.737Z,17.89
2018-04-24T11:46:01.844Z,18.01
2018-04-24T11:47:01.769Z,18.07
2018-04-24T11:48:01.832Z,17.89
2018-04-24T11:49:01.866Z,18.00
2018-04-24T11:50:01.845Z,18.29
2018-04-24T11:51:01.866Z,18.45
2018-04-24T11:52:02.086Z,18.25
2018-04-24T11:53:01.900Z,18.45
2018-04-24T11:54:01.922Z,18.53
2018-04-24T11:55:02.007Z,18.53
2018-04-24T11:56:01.976Z,18.44
2018-04-24T11:57:01.997Z,17.94
2018-04-24T11:58:02.089Z,18.26
2018-04-24T11:59:02.175Z,18.03
2018-04-24T12:00:02.085Z,17.56
2018-04-24T12:01:02.058Z,18.01
2018-04-24T12:02:02.083Z,17.85
2018-04-24T12:03:02.111Z,18.04
2018-04-24T12:04:02.200Z,17.79
2018-04-24T12:05:02.207Z,18.04
2018-04-24T12:06:02.194Z,18.07
2018-04-24T12:07:02.259Z,17.82
2018-04-24T12:08:02.215Z,17.94
2018-04-24T12:09:02.230Z,18.08
2018-04-24T12:10:02.281Z,17.78
2018-04-24T12:11:02.335Z,18.05
2018-04-24T12:12:02.291Z,18.38
2018-04-24T12:13:02.320Z,18.29
2018-04-24T12:14:02.331Z,18.33
2018-04-24T12:15:02.354Z,18.41
2018-04-24T12:16:02.376Z,18.65
2018-04-24T12:17:02.392Z,18.75
2018-04-24T12:18:02.572Z,18.73
2018-04-24T12:19:02.434Z,18.93
2018-04-24T12:20:02.451Z,19.15
2018-04-24T12:21:02.507Z,19.49
2018-04-24T12:22:02.511Z,19.48
2018-04-24T12:23:02.636Z,19.22
2018-04-24T12:24:02.536Z,19.49
2018-04-24T12:25:02.557Z,19.71
2018-04-24T12:26:02.581Z,19.85
2018-04-24T12:27:02.649Z,19.77
2018-04-24T12:28:02.621Z,19.73
2018-04-24T12:29:02.649Z,19.79
2018-04-24T12:30:02.662Z,19.63
2018-04-24T12:31:02.704Z,19.11
2018-04-24T12:32:02.704Z,19.44
2018-04-24T12:33:02.747Z,19.29
2018-04-24T12:34:02.746Z,19.48
2018-04-24T12:35:02.792Z,19.51
2018-04-24T12:36:02.790Z,19.79
2018-04-24T12:37:02.819Z,19.88
2018-04-24T12:38:02.834Z,19.85
2018-04-24T12:39:02.858Z,19.82
2018-04-24T12:40:02.877Z,19.89
2018-04-24T12:41:02.903Z,19.81
2018-04-24T12:42:02.924Z,19.45
2018-04-24T12:43:02.942Z,19.58
2018-04-24T12:44:02.991Z,19.99
2018-04-24T12:45:03.043Z,19.85
2018-04-24T12:46:03.008Z,19.86
2018-04-24T12:47:03.032Z,19.81
2018-04-24T12:48:03.060Z,19.92
2018-04-24T12:49:03.070Z,19.44
2018-04-24T12:50:03.090Z,19.82
2018-04-24T12:51:03.126Z,19.84
2018-04-24T12:52:03.143Z,20.31
2018-04-24T12:53:03.153Z,20.39
2018-04-24T12:54:03.185Z,20.39
2018-04-24T12:55:03.204Z,20.39